createdAt,value
2023-02-24T00:14:34.816Z,93625.28
2023-02-24T00:29:40.206Z,93630.22
2023-02-24T00:44:45.654Z,93614.53
2023-02-24T00:59:51.757Z,93598.06
2023-02-24T01:14:53.893Z,93591.53
2023-02-24T01:29:55.373Z,93579.25
2023-02-24T01:45:06.122Z,93578.91
2023-02-24T02:00:11.264Z,93569.34
2023-02-24T02:15:14.515Z,93569.34
2023-02-24T02:30:19.663Z,93572.38
2023-02-24T02:45:21.180Z,93574.72
2023-02-24T03:00:29.202Z,93557.84
2023-02-24T03:15:32.831Z,93564.38
2023-02-24T03:30:51.842Z,93561.69
2023-02-24T03:45:54.698Z,93565.13
2023-02-24T04:00:56.177Z,93554.41
2023-02-24T04:16:17.125Z,93559.00
2023-02-24T04:31:19.753Z,93547.16
2023-02-24T04:46:23.480Z,93531.03
2023-02-24T05:01:25.091Z,93533.38
2023-02-24T05:16:28.927Z,93532.22
2023-02-24T05:31:31.098Z,93541.44
2023-02-24T05:46:33.728Z,93551.84
2023-02-24T06:01:36.687Z,93552.19
2023-02-24T06:16:43.587Z,93562.94
2023-02-24T06:31:45.383Z,93577.53
2023-02-24T06:46:46.928Z,93567.88
2023-02-24T07:01:49.216Z,93552.19
2023-02-24T07:17:00.369Z,93543.72
2023-02-24T07:32:05.691Z,93540.28
2023-02-24T07:47:08.456Z,93549.09
2023-02-24T08:02:11.485Z,93531.88
2023-02-24T08:17:18.917Z,93515.75
2023-02-24T08:32:20.995Z,93518.38
2023-02-24T08:47:31.137Z,93508.31
2023-02-24T09:02:37.488Z,93514.78
2023-02-24T09:17:45.217Z,93505.50
2023-02-24T09:32:47.854Z,93500.38
2023-02-24T09:47:59.206Z,93496.88
2023-02-24T10:03:19.670Z,93478.75
2023-02-24T10:18:27.522Z,93445.31
2023-02-24T10:33:37.844Z,93416.94
2023-02-24T10:48:41.734Z,93392.69
2023-02-24T11:04:01.485Z,93381.59
2023-02-24T11:19:05.524Z,93357.66
2023-02-24T11:34:10.036Z,93324.59
2023-02-24T11:49:31.945Z,93295.34
2023-02-24T12:04:39.731Z,93271.50
2023-02-24T12:19:51.935Z,93249.94
2023-02-24T12:34:59.442Z,93253.78
2023-02-24T12:50:01.015Z,93263.28
2023-02-24T13:05:11.724Z,93224.66
2023-02-24T13:20:14.775Z,93218.50
2023-02-24T13:35:16.256Z,93189.28
2023-02-24T13:50:25.347Z,93194.66
2023-02-24T14:05:30.187Z,93194.31
2023-02-24T14:20:33.678Z,93192.41
2023-02-24T14:35:46.747Z,93190.88
2023-02-24T14:50:48.318Z,93192.06
2023-02-24T15:05:51.679Z,93190.13
2023-02-24T15:21:03.273Z,93177.88
2023-02-24T15:36:15.527Z,93164.84
2023-02-24T15:51:21.882Z,93153.78
2023-02-24T16:06:24.220Z,93150.34
2023-02-24T16:21:25.874Z,93149.25
2023-02-24T16:36:28.551Z,93141.94
2023-02-24T16:51:31.266Z,93151.63
2023-02-24T17:06:33.875Z,93157.75
2023-02-24T17:21:35.890Z,93138.59
2023-02-24T17:36:37.390Z,93152.78
2023-02-24T17:51:38.940Z,93143.22
2023-02-24T18:06:41.063Z,93142.47
2023-02-24T18:21:42.544Z,93128.28
2023-02-24T18:36:44.093Z,93137.53
2023-02-24T18:51:46.609Z,93137.53
2023-02-24T19:06:49.249Z,93122.25
2023-02-24T19:21:53.112Z,93126.88
2023-02-24T19:36:54.723Z,93135.34
2023-02-24T19:51:57.147Z,93140.72
2023-02-24T20:06:58.784Z,93134.25
2023-02-24T20:22:00.995Z,93127.38
2023-02-24T20:37:02.552Z,93118.16
2023-02-24T20:52:04.294Z,93114.38
2023-02-24T21:07:05.853Z,93110.28
2023-02-24T21:22:07.361Z,93096.53
2023-02-24T21:37:09.204Z,93092.75
2023-02-24T21:52:11.622Z,93098.97
2023-02-24T22:07:13.254Z,93095.94
2023-02-24T22:22:14.832Z,93072.63
2023-02-24T22:37:16.493Z,93059.97
2023-02-24T22:52:18.242Z,93070.78
2023-02-24T23:07:19.840Z,93060.91
2023-02-24T23:22:22.270Z,93055.97
2023-02-24T23:37:23.893Z,93044.78
2023-02-24T23:52:25.458Z,93051.75
